CheckWX is a tool to help pilots better visualize weather data.  It is not intended as a substitute for an official pre-flight weather briefing.

08:35:53 UTC

KREG METAR
Louisiana Regional Airport
Gonzales, Louisiana, USA
Current

21 mins ago

KREG 230815Z AUTO 00000KT 10SM CLR 15/15 A3008 RMK AO2 T01500147
Observed
Apr-23 @ 08:15 UTC
Visibility
10 SM
Flight Rules
VFR
Cloud Levels
  • Clear skies
Temperature
15°C / 59°F
Dewpoint
15°C / 59°F
Humidity
100%
Altimeter
30.08" Hg
Pressure
1018.62 hPa
Previous

41 mins ago

KREG 230755Z AUTO 00000KT 10SM CLR 15/15 A3008 RMK AO2 T01500145
Observed
Apr-23 @ 07:55 UTC
Visibility
10 SM
Flight Rules
VFR
Cloud Levels
  • Clear skies
Temperature
15°C / 59°F
Dewpoint
15°C / 59°F
Humidity
100%
Altimeter
30.08" Hg
Pressure
1018.62 hPa
Previous

1 hour ago

KREG 230735Z AUTO 00000KT 10SM CLR 15/15 A3008 RMK AO2 T01540149
Observed
Apr-23 @ 07:35 UTC
Visibility
10 SM
Flight Rules
VFR
Cloud Levels
  • Clear skies
Temperature
15°C / 59°F
Dewpoint
15°C / 59°F
Humidity
100%
Altimeter
30.08" Hg
Pressure
1018.62 hPa